Time;durP1;ratioP1;P1;durP2;ratioP2;P2;SDS_P1;SDS_P2;PMS_P1;PMS_P2;Temp;Humidity;BMP_temperature;BMP_pressure;BME280_temperature;BME280_humidity;BME280_pressure;Samples;Min_cycle;Max_cycle;Signal;HPM_P1;HPM_P2
2023/10/31 00:00:14;;;;;;;19.15;12.85;;;;;;;;;;5030483;28;20045;-68
2023/10/31 00:02:39;;;;;;;23.02;13.35;;;;;;;;;;5030312;28;20083;-68
2023/10/31 00:05:06;;;;;;;22.13;13.00;;;;;;;;;;5023102;28;20042;-68
2023/10/31 00:07:32;;;;;;;21.38;12.93;;;;;;;;;;5031142;28;20122;-68
2023/10/31 00:09:58;;;;;;;18.75;12.90;;;;;;;;;;5031832;28;20499;-68
2023/10/31 00:12:24;;;;;;;19.27;13.63;;;;;;;;;;5031525;28;20037;-68
2023/10/31 00:14:50;;;;;;;18.65;12.52;;;;;;;;;;5028747;28;20049;-68
2023/10/31 00:17:15;;;;;;;22.50;13.98;;;;;;;;;;5031363;28;20051;-68
2023/10/31 00:19:41;;;;;;;23.80;14.63;;;;;;;;;;5030396;28;20483;-68
2023/10/31 00:22:07;;;;;;;24.83;14.40;;;;;;;;;;5030271;28;20045;-68
2023/10/31 00:24:33;;;;;;;24.73;14.30;;;;;;;;;;5031767;28;20065;-68
2023/10/31 00:26:59;;;;;;;20.95;13.35;;;;;;;;;;5031135;28;20038;-68
2023/10/31 00:29:25;;;;;;;17.73;12.85;;;;;;;;;;5030851;28;20444;-68
2023/10/31 00:31:51;;;;;;;21.42;13.02;;;;;;;;;;5030979;28;20048;-68
2023/10/31 00:34:17;;;;;;;22.80;14.20;;;;;;;;;;5029861;28;20124;-68
2023/10/31 00:36:43;;;;;;;25.08;14.35;;;;;;;;;;5030539;28;20049;-68
2023/10/31 00:39:09;;;;;;;26.10;13.98;;;;;;;;;;5025296;28;20046;-68
2023/10/31 00:41:35;;;;;;;20.45;14.00;;;;;;;;;;5031689;28;20045;-68
2023/10/31 00:44:01;;;;;;;23.13;13.68;;;;;;;;;;5031559;28;20060;-68
2023/10/31 00:46:27;;;;;;;21.50;14.20;;;;;;;;;;5030969;28;20119;-68
2023/10/31 00:48:53;;;;;;;19.98;13.90;;;;;;;;;;5030553;28;20073;-68
2023/10/31 00:51:19;;;;;;;21.90;14.52;;;;;;;;;;5029432;28;20038;-69
2023/10/31 00:53:46;;;;;;;21.15;13.60;;;;;;;;;;5031508;28;20099;-69
2023/10/31 00:56:12;;;;;;;23.60;14.85;;;;;;;;;;5031847;28;20091;-69
2023/10/31 00:58:38;;;;;;;21.02;14.35;;;;;;;;;;5030124;28;20037;-69
2023/10/31 01:01:04;;;;;;;22.10;14.27;;;;;;;;;;5030988;28;20041;-69
2023/10/31 01:03:30;;;;;;;24.95;15.88;;;;;;;;;;5030544;28;20045;-69
2023/10/31 01:05:56;;;;;;;24.52;14.73;;;;;;;;;;5031612;28;20103;-69
2023/10/31 01:08:22;;;;;;;26.30;15.82;;;;;;;;;;5030477;28;20364;-69
2023/10/31 01:10:48;;;;;;;26.90;16.25;;;;;;;;;;5030660;28;20046;-69
2023/10/31 01:13:14;;;;;;;26.35;15.73;;;;;;;;;;5027208;28;20048;-68
2023/10/31 01:15:40;;;;;;;30.90;16.85;;;;;;;;;;5031791;28;20038;-68
2023/10/31 01:18:06;;;;;;;25.42;16.27;;;;;;;;;;5029711;28;20372;-68
2023/10/31 01:20:32;;;;;;;26.85;16.58;;;;;;;;;;5031387;28;20080;-68
2023/10/31 01:22:58;;;;;;;25.70;16.08;;;;;;;;;;5026009;28;20550;-68
2023/10/31 01:25:24;;;;;;;25.30;16.85;;;;;;;;;;5031193;28;20121;-68
2023/10/31 01:27:49;;;;;;;25.27;15.57;;;;;;;;;;5029666;28;20498;-68
2023/10/31 01:30:15;;;;;;;30.30;17.23;;;;;;;;;;5029687;28;20110;-68
2023/10/31 01:32:41;;;;;;;13.90;9.45;;;;;;;;;;5027059;28;20053;-68
2023/10/31 01:35:08;;;;;;;4.88;2.42;;;;;;;;;;5030444;28;20048;-68
2023/10/31 01:37:33;;;;;;;2.70;1.80;;;;;;;;;;5030649;28;20045;-68
2023/10/31 01:39:59;;;;;;;2.20;1.13;;;;;;;;;;5026348;28;20048;-68
2023/10/31 01:42:25;;;;;;;1.25;0.88;;;;;;;;;;5029990;28;20502;-68
2023/10/31 01:44:51;;;;;;;1.05;0.60;;;;;;;;;;5031136;28;20041;-68
2023/10/31 01:47:17;;;;;;;1.02;0.60;;;;;;;;;;5030467;28;20072;-68
2023/10/31 01:49:44;;;;;;;0.60;0.40;;;;;;;;;;5030664;28;20041;-68
2023/10/31 01:52:10;;;;;;;0.73;0.70;;;;;;;;;;5028075;28;20037;-68
2023/10/31 01:54:36;;;;;;;0.88;0.80;;;;;;;;;;5034740;28;20107;-68
2023/10/31 01:57:03;;;;;;;0.73;0.68;;;;;;;;;;5034020;28;20041;-68
2023/10/31 01:59:29;;;;;;;0.68;0.68;;;;;;;;;;5034107;28;20072;-69
2023/10/31 02:01:56;;;;;;;0.60;0.57;;;;;;;;;;5033477;28;20080;-68
2023/10/31 02:04:22;;;;;;;0.52;0.50;;;;;;;;;;5034797;28;20124;-68
2023/10/31 02:06:48;;;;;;;1.08;0.50;;;;;;;;;;5032866;28;20133;-68
2023/10/31 02:09:14;;;;;;;1.67;0.60;;;;;;;;;;5033398;28;20025;-68
2023/10/31 02:11:40;;;;;;;2.03;0.45;;;;;;;;;;5033355;28;20112;-68
2023/10/31 02:14:06;;;;;;;0.43;0.38;;;;;;;;;;5026426;28;20068;-68
2023/10/31 02:16:32;;;;;;;0.80;0.30;;;;;;;;;;5032660;28;20064;-68
2023/10/31 02:18:58;;;;;;;1.30;0.30;;;;;;;;;;5032143;28;20525;-68
2023/10/31 02:21:25;;;;;;;0.57;0.40;;;;;;;;;;5033031;28;20041;-68
2023/10/31 02:23:59;;;;;;;1.23;0.55;;;;;;;;;;5031297;28;20049;-68
2023/10/31 02:26:28;;;;;;;0.98;0.50;;;;;;;;;;5028233;28;20373;-68
2023/10/31 02:28:54;;;;;;;1.60;0.45;;;;;;;;;;5031661;28;20034;-68
2023/10/31 02:31:20;;;;;;;1.75;0.50;;;;;;;;;;5030674;28;20385;-68
2023/10/31 02:33:46;;;;;;;1.48;0.40;;;;;;;;;;5033359;28;20042;-68
2023/10/31 02:36:12;;;;;;;2.35;0.75;;;;;;;;;;5031755;28;20041;-68
2023/10/31 02:38:38;;;;;;;1.17;0.77;;;;;;;;;;5029914;28;20049;-68
2023/10/31 02:41:04;;;;;;;2.03;0.82;;;;;;;;;;5032091;28;20531;-68
2023/10/31 02:43:30;;;;;;;2.25;0.93;;;;;;;;;;5032932;28;20038;-68
2023/10/31 02:45:56;;;;;;;2.45;0.95;;;;;;;;;;5031549;28;20096;-68
2023/10/31 02:48:23;;;;;;;2.70;0.85;;;;;;;;;;5031894;28;20412;-68
2023/10/31 02:50:49;;;;;;;3.45;0.90;;;;;;;;;;5032903;28;20049;-68
2023/10/31 02:53:15;;;;;;;1.60;0.88;;;;;;;;;;5031742;28;20403;-68
2023/10/31 02:55:41;;;;;;;2.88;0.90;;;;;;;;;;5031573;28;20041;-68
2023/10/31 02:58:07;;;;;;;3.10;0.90;;;;;;;;;;5031108;28;20066;-68
2023/10/31 03:00:33;;;;;;;5.13;1.52;;;;;;;;;;5028006;28;20042;-68
2023/10/31 03:02:59;;;;;;;3.55;0.90;;;;;;;;;;5031354;28;20037;-68
2023/10/31 03:05:25;;;;;;;3.75;1.20;;;;;;;;;;5022525;28;20463;-68
2023/10/31 03:07:52;;;;;;;3.15;1.08;;;;;;;;;;5026043;28;20077;-68
2023/10/31 03:10:18;;;;;;;6.47;1.38;;;;;;;;;;5027018;28;20079;-68
2023/10/31 03:12:44;;;;;;;6.05;1.58;;;;;;;;;;5031639;28;20042;-68
2023/10/31 03:15:10;;;;;;;4.28;1.40;;;;;;;;;;5031244;28;20041;-68
2023/10/31 03:17:36;;;;;;;4.18;1.60;;;;;;;;;;5031005;28;20045;-68
2023/10/31 03:20:03;;;;;;;9.88;2.30;;;;;;;;;;5032510;28;20092;-68
2023/10/31 03:22:29;;;;;;;4.75;1.90;;;;;;;;;;5032213;28;20422;-68
2023/10/31 03:24:55;;;;;;;5.28;2.00;;;;;;;;;;5027211;28;20055;-68
2023/10/31 03:27:21;;;;;;;4.05;2.15;;;;;;;;;;5030159;28;20046;-68
2023/10/31 03:29:47;;;;;;;6.90;1.85;;;;;;;;;;5028088;28;20037;-68
2023/10/31 03:32:13;;;;;;;7.32;1.90;;;;;;;;;;5032704;28;20404;-68
2023/10/31 03:34:39;;;;;;;2.95;1.63;;;;;;;;;;5031291;28;20033;-68
2023/10/31 03:37:05;;;;;;;5.13;1.60;;;;;;;;;;5030538;28;20048;-68
2023/10/31 03:39:31;;;;;;;3.45;1.50;;;;;;;;;;5030297;28;20116;-68
2023/10/31 03:41:57;;;;;;;6.65;1.50;;;;;;;;;;5032215;28;20172;-68
2023/10/31 03:44:23;;;;;;;3.72;1.42;;;;;;;;;;5032095;28;20045;-68
2023/10/31 03:46:49;;;;;;;5.03;1.40;;;;;;;;;;5029907;28;20215;-68
2023/10/31 03:49:15;;;;;;;6.43;1.88;;;;;;;;;;5029363;28;20160;-68
2023/10/31 03:51:41;;;;;;;4.18;1.88;;;;;;;;;;5031624;28;20112;-68
2023/10/31 03:54:07;;;;;;;7.05;1.75;;;;;;;;;;5032225;28;20113;-68
2023/10/31 03:56:40;;;;;;;3.83;1.45;;;;;;;;;;5029368;28;20046;-68
2023/10/31 03:59:06;;;;;;;4.40;1.50;;;;;;;;;;5028157;28;20140;-68
2023/10/31 04:01:32;;;;;;;6.20;1.80;;;;;;;;;;5031590;28;20527;-68
2023/10/31 04:03:58;;;;;;;5.03;1.77;;;;;;;;;;5030174;28;20053;-68
2023/10/31 04:06:24;;;;;;;3.55;1.60;;;;;;;;;;5025868;28;20124;-68
2023/10/31 04:08:50;;;;;;;2.78;1.58;;;;;;;;;;5021304;28;20286;-68
2023/10/31 04:11:16;;;;;;;8.88;2.30;;;;;;;;;;5024660;28;20049;-68
2023/10/31 04:13:42;;;;;;;2.50;1.90;;;;;;;;;;5023887;28;20053;-68
2023/10/31 04:16:08;;;;;;;3.83;2.00;;;;;;;;;;5030772;28;20055;-68
2023/10/31 04:18:34;;;;;;;3.45;2.30;;;;;;;;;;5028232;28;20041;-68
2023/10/31 04:21:00;;;;;;;3.83;2.10;;;;;;;;;;5057315;22;20045;-74
2023/10/31 04:23:26;;;;;;;3.97;2.00;;;;;;;;;;5046543;28;20041;-74
2023/10/31 04:25:52;;;;;;;3.17;1.83;;;;;;;;;;5050786;28;20056;-74
2023/10/31 04:28:18;;;;;;;2.63;1.60;;;;;;;;;;5035183;28;20040;-74
2023/10/31 04:30:44;;;;;;;3.53;1.38;;;;;;;;;;5034051;28;20049;-74
2023/10/31 04:33:10;;;;;;;2.92;1.20;;;;;;;;;;5030725;28;20042;-74
2023/10/31 04:35:36;;;;;;;2.83;1.55;;;;;;;;;;5040822;28;20076;-74
2023/10/31 04:38:02;;;;;;;1.48;1.00;;;;;;;;;;5030670;28;20057;-74
2023/10/31 04:40:28;;;;;;;1.60;0.98;;;;;;;;;;5034444;28;20178;-74
2023/10/31 04:42:55;;;;;;;2.97;0.93;;;;;;;;;;5028790;28;20066;-74
2023/10/31 04:45:21;;;;;;;2.70;1.40;;;;;;;;;;5031335;28;20034;-74
2023/10/31 04:47:48;;;;;;;1.98;1.13;;;;;;;;;;5028006;28;20176;-74
2023/10/31 04:50:14;;;;;;;2.88;1.58;;;;;;;;;;5029230;28;20033;-74
2023/10/31 04:52:40;;;;;;;2.53;1.05;;;;;;;;;;5032234;28;20043;-74
2023/10/31 04:55:06;;;;;;;4.82;1.17;;;;;;;;;;5032857;28;20056;-74
2023/10/31 04:57:32;;;;;;;2.83;0.98;;;;;;;;;;5036429;28;20088;-74
2023/10/31 04:59:59;;;;;;;3.20;1.27;;;;;;;;;;5028161;28;20496;-74
2023/10/31 05:02:25;;;;;;;2.08;1.10;;;;;;;;;;5030071;28;20045;-74
2023/10/31 05:04:51;;;;;;;3.55;1.05;;;;;;;;;;5029323;28;20041;-74
2023/10/31 05:07:17;;;;;;;3.60;1.20;;;;;;;;;;5036933;28;20104;-74
2023/10/31 05:09:43;;;;;;;3.90;1.15;;;;;;;;;;5031933;28;20038;-74
2023/10/31 05:12:09;;;;;;;3.90;1.30;;;;;;;;;;5031603;28;20357;-74
2023/10/31 05:14:35;;;;;;;3.67;1.10;;;;;;;;;;5040073;28;20041;-74
2023/10/31 05:17:01;;;;;;;2.63;0.98;;;;;;;;;;5026377;28;20041;-74
2023/10/31 05:19:27;;;;;;;5.13;1.05;;;;;;;;;;5033079;28;20095;-73
2023/10/31 05:21:53;;;;;;;2.05;1.17;;;;;;;;;;5032293;28;20499;-74
2023/10/31 05:24:19;;;;;;;2.97;1.10;;;;;;;;;;5039455;28;20037;-74
2023/10/31 05:26:45;;;;;;;3.53;1.35;;;;;;;;;;5028181;28;20046;-74
2023/10/31 05:29:12;;;;;;;3.92;1.20;;;;;;;;;;5033392;28;20453;-74
2023/10/31 05:31:38;;;;;;;4.50;1.40;;;;;;;;;;5034509;28;20029;-74
2023/10/31 05:34:04;;;;;;;3.38;1.10;;;;;;;;;;5030465;28;20088;-74
2023/10/31 05:36:30;;;;;;;4.53;1.30;;;;;;;;;;5039908;28;20045;-74
2023/10/31 05:38:56;;;;;;;4.10;1.20;;;;;;;;;;5040087;28;20041;-74
2023/10/31 05:41:22;;;;;;;4.28;1.20;;;;;;;;;;5035061;28;20040;-74
2023/10/31 05:43:48;;;;;;;4.88;2.28;;;;;;;;;;5037394;28;20403;-74
2023/10/31 05:46:14;;;;;;;6.57;2.30;;;;;;;;;;5034794;28;20060;-74
2023/10/31 05:48:42;;;;;;;7.43;2.47;;;;;;;;;;5042296;28;20040;-74
2023/10/31 05:51:14;;;;;;;4.95;2.40;;;;;;;;;;5051638;28;20037;-74
2023/10/31 05:53:41;;;;;;;5.70;2.22;;;;;;;;;;5028227;28;20042;-74
2023/10/31 05:56:07;;;;;;;5.78;2.42;;;;;;;;;;5035710;28;20492;-74
2023/10/31 05:58:33;;;;;;;4.63;2.03;;;;;;;;;;5040840;28;20047;-74
2023/10/31 06:00:59;;;;;;;4.10;1.73;;;;;;;;;;5039338;28;20069;-74
2023/10/31 06:03:25;;;;;;;2.95;1.70;;;;;;;;;;5034067;28;20069;-74
2023/10/31 06:05:51;;;;;;;3.92;1.80;;;;;;;;;;5038849;28;20052;-74
2023/10/31 06:08:17;;;;;;;2.50;1.40;;;;;;;;;;5034686;28;20041;-74
2023/10/31 06:10:43;;;;;;;5.18;1.77;;;;;;;;;;5040775;28;20034;-74
2023/10/31 06:13:09;;;;;;;4.13;1.55;;;;;;;;;;5033008;28;20069;-74
2023/10/31 06:15:35;;;;;;;6.22;1.77;;;;;;;;;;5045780;28;20049;-74
2023/10/31 06:18:02;;;;;;;3.17;1.70;;;;;;;;;;5030874;28;20463;-74
2023/10/31 06:20:28;;;;;;;2.88;1.40;;;;;;;;;;5034409;28;20045;-74
2023/10/31 06:22:54;;;;;;;5.85;1.70;;;;;;;;;;5044408;28;20387;-74
2023/10/31 06:25:20;;;;;;;3.75;1.40;;;;;;;;;;5030046;28;20040;-73
2023/10/31 06:27:46;;;;;;;3.05;1.48;;;;;;;;;;5037267;28;20116;-74
2023/10/31 06:30:13;;;;;;;2.75;1.60;;;;;;;;;;5039101;28;20037;-75
2023/10/31 06:32:40;;;;;;;4.82;1.80;;;;;;;;;;5041317;28;20037;-74
2023/10/31 06:35:07;;;;;;;2.65;1.65;;;;;;;;;;5033640;28;20045;-74
2023/10/31 06:37:32;;;;;;;4.78;2.00;;;;;;;;;;5032393;28;20095;-74
2023/10/31 06:39:58;;;;;;;2.75;1.73;;;;;;;;;;5037443;28;20041;-74
2023/10/31 06:42:24;;;;;;;4.20;1.73;;;;;;;;;;5031899;28;20067;-74
2023/10/31 06:44:50;;;;;;;2.88;2.10;;;;;;;;;;5032889;28;20030;-74
2023/10/31 06:47:16;;;;;;;4.10;1.92;;;;;;;;;;5027217;28;20503;-74
2023/10/31 06:49:42;;;;;;;3.70;2.05;;;;;;;;;;5035813;28;20072;-74
2023/10/31 06:52:08;;;;;;;4.75;1.98;;;;;;;;;;5033197;28;20446;-74
2023/10/31 06:54:34;;;;;;;4.30;2.00;;;;;;;;;;5031243;28;20045;-74
2023/10/31 06:57:04;;;;;;;2.78;1.70;;;;;;;;;;5032611;28;20044;-74
2023/10/31 06:59:29;;;;;;;6.40;1.95;;;;;;;;;;5036792;28;20185;-74
2023/10/31 07:01:56;;;;;;;6.45;1.67;;;;;;;;;;5032764;28;20088;-74
2023/10/31 07:04:22;;;;;;;4.32;1.52;;;;;;;;;;5032562;28;20110;-76
2023/10/31 07:06:48;;;;;;;4.72;1.52;;;;;;;;;;5030225;28;21192;-74
2023/10/31 07:09:14;;;;;;;4.30;1.60;;;;;;;;;;5036875;28;20041;-75
2023/10/31 07:11:40;;;;;;;4.50;1.85;;;;;;;;;;5038674;28;20037;-74
2023/10/31 07:14:06;;;;;;;4.57;1.83;;;;;;;;;;5034858;28;20579;-75
2023/10/31 07:16:33;;;;;;;3.30;1.80;;;;;;;;;;5029714;28;20049;-74
2023/10/31 07:18:59;;;;;;;3.42;1.75;;;;;;;;;;5037407;28;20091;-75
2023/10/31 07:21:26;;;;;;;7.15;2.10;;;;;;;;;;5031286;28;20036;-74
2023/10/31 07:23:52;;;;;;;3.25;2.28;;;;;;;;;;5028502;28;20045;-74
2023/10/31 07:26:18;;;;;;;6.10;2.28;;;;;;;;;;5040349;28;20041;-74
2023/10/31 07:28:44;;;;;;;3.88;2.10;;;;;;;;;;5033277;28;20044;-74
2023/10/31 07:31:10;;;;;;;6.72;2.83;;;;;;;;;;5025742;28;20038;-74
2023/10/31 07:33:36;;;;;;;6.10;2.63;;;;;;;;;;5029663;28;20072;-74
2023/10/31 07:36:02;;;;;;;4.15;2.58;;;;;;;;;;5035477;28;20069;-74
2023/10/31 07:38:28;;;;;;;7.05;3.00;;;;;;;;;;5025611;28;20037;-74
2023/10/31 07:40:54;;;;;;;3.97;2.80;;;;;;;;;;5031854;28;20037;-74
2023/10/31 07:43:20;;;;;;;7.90;3.20;;;;;;;;;;5037416;28;20041;-73
2023/10/31 07:45:46;;;;;;;5.07;3.15;;;;;;;;;;5035116;28;20060;-73
2023/10/31 07:48:12;;;;;;;4.20;2.92;;;;;;;;;;5035274;28;20091;-73
2023/10/31 07:50:38;;;;;;;6.97;3.05;;;;;;;;;;5031738;28;20037;-75
2023/10/31 07:53:04;;;;;;;4.25;3.28;;;;;;;;;;5031615;28;20491;-74
2023/10/31 07:55:30;;;;;;;6.40;2.88;;;;;;;;;;5031577;28;20029;-74
2023/10/31 07:57:56;;;;;;;5.40;2.90;;;;;;;;;;5034858;28;20041;-74
2023/10/31 08:00:22;;;;;;;6.13;2.47;;;;;;;;;;5029439;28;20400;-74
2023/10/31 08:02:48;;;;;;;6.40;2.63;;;;;;;;;;5036624;28;20075;-74
2023/10/31 08:05:14;;;;;;;6.28;2.58;;;;;;;;;;5035444;28;20565;-74
2023/10/31 08:07:40;;;;;;;4.47;2.65;;;;;;;;;;5033484;28;20045;-73
2023/10/31 08:10:06;;;;;;;5.45;2.95;;;;;;;;;;5029646;28;20509;-74
2023/10/31 08:12:32;;;;;;;6.05;2.90;;;;;;;;;;5027795;28;21337;-74
2023/10/31 08:14:59;;;;;;;4.70;2.30;;;;;;;;;;5029720;28;20038;-74
2023/10/31 08:17:26;;;;;;;5.03;2.50;;;;;;;;;;5028461;28;20061;-74
2023/10/31 08:19:52;;;;;;;8.10;2.47;;;;;;;;;;5035821;28;20083;-75
2023/10/31 08:22:17;;;;;;;5.15;2.42;;;;;;;;;;5029547;28;20073;-74
2023/10/31 08:24:43;;;;;;;4.45;2.75;;;;;;;;;;5031429;28;20041;-74
2023/10/31 08:27:10;;;;;;;4.55;2.03;;;;;;;;;;5028775;28;20470;-74
2023/10/31 08:29:36;;;;;;;4.00;2.22;;;;;;;;;;5033981;28;20041;-75
2023/10/31 08:32:02;;;;;;;4.03;1.88;;;;;;;;;;5027720;28;20034;-74
2023/10/31 08:34:28;;;;;;;7.20;2.08;;;;;;;;;;5032247;28;20468;-74
2023/10/31 08:36:56;;;;;;;6.07;2.30;;;;;;;;;;5031599;28;20180;-74
2023/10/31 08:39:22;;;;;;;4.53;2.20;;;;;;;;;;5029099;28;20060;-74
2023/10/31 08:41:55;;;;;;;4.13;1.75;;;;;;;;;;5034464;28;20124;-74
2023/10/31 08:44:21;;;;;;;6.20;1.90;;;;;;;;;;5034977;28;20049;-74
2023/10/31 08:46:47;;;;;;;4.68;2.08;;;;;;;;;;5027493;28;20045;-74
2023/10/31 08:49:14;;;;;;;3.88;1.80;;;;;;;;;;5057787;28;20030;-74
2023/10/31 08:51:39;;;;;;;3.92;1.60;;;;;;;;;;5035376;28;20033;-74
2023/10/31 08:54:06;;;;;;;4.00;1.05;;;;;;;;;;5037466;28;20045;-74
2023/10/31 08:56:32;;;;;;;5.10;0.95;;;;;;;;;;5030011;28;20041;-74
2023/10/31 08:58:58;;;;;;;4.72;1.08;;;;;;;;;;5029106;28;20052;-74
2023/10/31 09:01:24;;;;;;;3.30;0.80;;;;;;;;;;5030075;28;20049;-75
2023/10/31 09:03:50;;;;;;;4.07;0.95;;;;;;;;;;5032504;28;20045;-75
2023/10/31 09:06:16;;;;;;;5.35;0.70;;;;;;;;;;5036992;28;20041;-75
2023/10/31 09:08:42;;;;;;;4.32;0.93;;;;;;;;;;5034296;28;20041;-75
2023/10/31 09:11:08;;;;;;;1.60;0.55;;;;;;;;;;5031653;28;20053;-75
2023/10/31 09:13:34;;;;;;;2.50;0.65;;;;;;;;;;5033922;28;20056;-75
2023/10/31 09:16:00;;;;;;;5.30;0.75;;;;;;;;;;5032026;28;20048;-75
2023/10/31 09:18:26;;;;;;;2.55;0.70;;;;;;;;;;5043947;28;20049;-75
2023/10/31 09:20:52;;;;;;;2.63;0.65;;;;;;;;;;5032592;28;20450;-75
2023/10/31 09:23:18;;;;;;;4.72;0.98;;;;;;;;;;5034049;28;20117;-75
2023/10/31 09:25:44;;;;;;;2.67;0.60;;;;;;;;;;5040084;28;20045;-75
2023/10/31 09:28:10;;;;;;;3.63;0.70;;;;;;;;;;5042431;28;20050;-75
2023/10/31 09:30:36;;;;;;;4.43;0.63;;;;;;;;;;5034092;28;20373;-74
2023/10/31 09:33:02;;;;;;;1.75;0.52;;;;;;;;;;5033126;28;20048;-75
2023/10/31 09:35:28;;;;;;;2.95;0.70;;;;;;;;;;5030415;28;20088;-75
2023/10/31 09:37:55;;;;;;;5.72;0.82;;;;;;;;;;5031822;28;20041;-75
2023/10/31 09:40:21;;;;;;;3.22;0.77;;;;;;;;;;5031168;28;20047;-75
2023/10/31 09:42:48;;;;;;;3.10;0.70;;;;;;;;;;5037885;28;20506;-75
2023/10/31 09:45:14;;;;;;;6.88;1.05;;;;;;;;;;5037300;28;20060;-75
2023/10/31 09:47:42;;;;;;;2.75;0.40;;;;;;;;;;5035737;28;20049;-74
2023/10/31 09:50:09;;;;;;;2.38;0.60;;;;;;;;;;5039283;28;20045;-75
2023/10/31 09:52:36;;;;;;;2.75;0.38;;;;;;;;;;5038977;28;20571;-75
2023/10/31 09:55:02;;;;;;;3.05;0.52;;;;;;;;;;5034634;28;20380;-74
2023/10/31 09:57:28;;;;;;;2.47;0.60;;;;;;;;;;5036857;28;20461;-75
2023/10/31 09:59:54;;;;;;;3.88;0.57;;;;;;;;;;5032129;28;20484;-75
2023/10/31 10:02:20;;;;;;;5.10;0.52;;;;;;;;;;5031319;28;20045;-74
2023/10/31 10:04:48;;;;;;;3.45;0.50;;;;;;;;;;5016556;28;20056;-75
2023/10/31 10:07:18;;;;;;;3.00;0.60;;;;;;;;;;5041438;28;20041;-75
2023/10/31 10:09:46;;;;;;;3.60;0.40;;;;;;;;;;5036183;28;20041;-75
2023/10/31 10:12:17;;;;;;;1.95;0.50;;;;;;;;;;5028300;28;20042;-74
2023/10/31 10:14:46;;;;;;;1.42;0.80;;;;;;;;;;5044626;28;20044;-74
2023/10/31 10:17:17;;;;;;;1.52;0.43;;;;;;;;;;5032629;28;20387;-74
2023/10/31 10:19:43;;;;;;;2.97;0.63;;;;;;;;;;5102425;22;20049;-65
2023/10/31 10:22:10;;;;;;;3.80;0.50;;;;;;;;;;5031951;28;20493;-65
2023/10/31 10:24:36;;;;;;;0.40;0.30;;;;;;;;;;5036125;28;20049;-65
2023/10/31 10:27:02;;;;;;;1.48;0.28;;;;;;;;;;5033457;28;20085;-65
2023/10/31 10:29:28;;;;;;;1.35;0.30;;;;;;;;;;5038183;28;20045;-65
2023/10/31 10:31:54;;;;;;;1.75;0.40;;;;;;;;;;5023506;28;20038;-65
2023/10/31 10:34:20;;;;;;;1.33;0.30;;;;;;;;;;5023166;28;20083;-65
2023/10/31 10:36:49;;;;;;;1.52;0.30;;;;;;;;;;5023375;28;20056;-65
2023/10/31 10:39:18;;;;;;;1.38;0.30;;;;;;;;;;5024468;28;20045;-65
2023/10/31 10:41:44;;;;;;;0.35;0.20;;;;;;;;;;5026519;28;20436;-65
2023/10/31 10:44:13;;;;;;;0.93;0.20;;;;;;;;;;5032442;28;20060;-65
2023/10/31 10:46:40;;;;;;;0.73;0.28;;;;;;;;;;5028251;28;20038;-65
2023/10/31 10:49:07;;;;;;;1.75;0.30;;;;;;;;;;5020037;28;20038;-65
2023/10/31 10:51:42;;;;;;;1.75;0.30;;;;;;;;;;5028530;28;20034;-65
2023/10/31 10:54:27;;;;;;;1.52;0.38;;;;;;;;;;5012942;28;20103;-64
2023/10/31 10:57:00;;;;;;;0.95;0.30;;;;;;;;;;5024533;28;20045;-64
2023/10/31 10:59:41;;;;;;;1.10;0.55;;;;;;;;;;5028647;28;20045;-65
2023/10/31 11:02:07;;;;;;;;;;;;;;;;;;5024095;28;20041;-65
2023/10/31 11:04:34;;;;;;;4.18;0.50;;;;;;;;;;5023369;28;20044;-65
2023/10/31 11:07:00;;;;;;;2.95;0.40;;;;;;;;;;5028380;28;20033;-65
2023/10/31 11:09:27;;;;;;;2.97;0.40;;;;;;;;;;5022337;28;20075;-65
2023/10/31 11:11:53;;;;;;;2.60;0.70;;;;;;;;;;5021467;28;20037;-65
2023/10/31 11:14:19;;;;;;;2.72;0.43;;;;;;;;;;5013062;28;20033;-65
2023/10/31 11:16:48;;;;;;;0.50;0.30;;;;;;;;;;5027743;28;20044;-65
2023/10/31 11:19:14;;;;;;;3.45;0.70;;;;;;;;;;5027349;28;20041;-65
2023/10/31 11:21:54;;;;;;;2.83;0.50;;;;;;;;;;5017405;28;20525;-65
2023/10/31 11:24:22;;;;;;;2.33;0.50;;;;;;;;;;5017123;28;20094;-65
2023/10/31 11:26:52;;;;;;;2.28;0.60;;;;;;;;;;5016583;28;20038;-65
2023/10/31 11:29:19;;;;;;;1.80;0.50;;;;;;;;;;5017423;28;20486;-65
2023/10/31 11:31:45;;;;;;;1.45;0.40;;;;;;;;;;5023211;28;20288;-65
2023/10/31 11:34:12;;;;;;;3.15;0.40;;;;;;;;;;5024149;28;20065;-65
2023/10/31 11:36:38;;;;;;;4.30;0.50;;;;;;;;;;5020175;28;20045;-65
2023/10/31 11:39:15;;;;;;;5.72;0.68;;;;;;;;;;5022000;28;20558;-64
2023/10/31 11:41:46;;;;;;;2.97;0.40;;;;;;;;;;5015000;28;20044;-65
2023/10/31 11:44:12;;;;;;;2.05;0.50;;;;;;;;;;5016973;28;20052;-65
2023/10/31 11:46:38;;;;;;;1.75;0.40;;;;;;;;;;5016251;28;20038;-65
2023/10/31 11:49:05;;;;;;;3.47;0.68;;;;;;;;;;5014838;28;20502;-65
2023/10/31 11:51:31;;;;;;;3.13;0.40;;;;;;;;;;5006024;28;20128;-65
2023/10/31 11:53:58;;;;;;;2.63;0.45;;;;;;;;;;5015172;28;20113;-65
2023/10/31 11:56:24;;;;;;;2.65;0.60;;;;;;;;;;5017330;28;20404;-65
2023/10/31 11:59:00;;;;;;;3.35;0.60;;;;;;;;;;5010206;28;20416;-65
2023/10/31 12:01:26;;;;;;;2.15;0.68;;;;;;;;;;5014327;28;20446;-65
2023/10/31 12:03:52;;;;;;;2.20;0.52;;;;;;;;;;5027083;28;20457;-65
2023/10/31 12:06:20;;;;;;;1.42;0.52;;;;;;;;;;5022363;28;20049;-65
2023/10/31 12:08:47;;;;;;;4.45;0.85;;;;;;;;;;5017812;28;20037;-65
2023/10/31 12:11:13;;;;;;;1.23;0.50;;;;;;;;;;5017148;28;20034;-65
2023/10/31 12:13:40;;;;;;;2.50;0.50;;;;;;;;;;5014203;28;21026;-65
2023/10/31 12:16:08;;;;;;;1.52;0.40;;;;;;;;;;5018955;28;20528;-65
2023/10/31 12:18:35;;;;;;;1.92;0.38;;;;;;;;;;5012630;28;20122;-65
2023/10/31 12:21:01;;;;;;;2.88;0.43;;;;;;;;;;5017163;28;20034;-65
2023/10/31 12:23:27;;;;;;;1.02;0.30;;;;;;;;;;5021122;28;20033;-65
2023/10/31 12:25:54;;;;;;;2.50;0.63;;;;;;;;;;5014297;28;20077;-65
2023/10/31 12:28:23;;;;;;;0.40;0.30;;;;;;;;;;5014782;28;20030;-65
2023/10/31 12:30:50;;;;;;;2.05;0.40;;;;;;;;;;5013955;28;20085;-65
2023/10/31 12:33:16;;;;;;;1.65;0.30;;;;;;;;;;5022630;28;20516;-65
2023/10/31 12:35:43;;;;;;;1.42;0.43;;;;;;;;;;5013215;28;20030;-65
2023/10/31 12:38:12;;;;;;;1.63;0.45;;;;;;;;;;5010174;28;20080;-65
2023/10/31 12:40:39;;;;;;;3.80;0.40;;;;;;;;;;5013690;28;20125;-65
2023/10/31 12:43:05;;;;;;;1.88;0.40;;;;;;;;;;5030889;28;20034;-65
2023/10/31 12:45:31;;;;;;;1.52;0.63;;;;;;;;;;5017788;28;20054;-65
2023/10/31 12:48:04;;;;;;;4.15;0.63;;;;;;;;;;5022432;28;20054;-65
2023/10/31 12:50:31;;;;;;;2.70;0.60;;;;;;;;;;5015601;28;20097;-65
2023/10/31 12:52:59;;;;;;;3.72;0.50;;;;;;;;;;5018331;28;20402;-65
2023/10/31 12:55:25;;;;;;;2.58;0.60;;;;;;;;;;5021630;28;20501;-65
2023/10/31 12:57:52;;;;;;;2.10;0.50;;;;;;;;;;5008330;28;20117;-65
2023/10/31 13:00:24;;;;;;;1.85;0.47;;;;;;;;;;5021724;28;20052;-65
2023/10/31 13:02:50;;;;;;;3.83;1.02;;;;;;;;;;5022503;28;20079;-65
2023/10/31 13:05:16;;;;;;;2.63;0.60;;;;;;;;;;5026593;28;20148;-65
2023/10/31 13:07:49;;;;;;;2.25;0.50;;;;;;;;;;5022505;28;20506;-65
2023/10/31 13:10:16;;;;;;;2.70;0.57;;;;;;;;;;5016170;28;20436;-65
2023/10/31 13:12:49;;;;;;;2.72;0.40;;;;;;;;;;5019068;28;20045;-65
2023/10/31 13:15:15;;;;;;;3.15;0.30;;;;;;;;;;5022862;28;20030;-65
2023/10/31 13:17:43;;;;;;;1.45;0.28;;;;;;;;;;5017996;28;20049;-65
2023/10/31 13:20:09;;;;;;;1.63;0.40;;;;;;;;;;5025905;28;20033;-65
2023/10/31 13:22:36;;;;;;;1.50;0.50;;;;;;;;;;5020286;28;20046;-65
2023/10/31 13:25:04;;;;;;;1.55;0.38;;;;;;;;;;5022736;28;20077;-65
2023/10/31 13:27:31;;;;;;;2.95;0.40;;;;;;;;;;5020793;28;20053;-65
2023/10/31 13:29:57;;;;;;;4.30;0.70;;;;;;;;;;5020109;28;20033;-65
2023/10/31 13:32:24;;;;;;;2.15;0.43;;;;;;;;;;5022342;28;20401;-65
2023/10/31 13:34:50;;;;;;;3.53;0.52;;;;;;;;;;5028055;28;20481;-65
2023/10/31 13:37:16;;;;;;;3.72;0.50;;;;;;;;;;5023978;28;20049;-65
2023/10/31 13:39:42;;;;;;;2.40;0.50;;;;;;;;;;5017047;28;20433;-66
2023/10/31 13:42:10;;;;;;;4.43;1.48;;;;;;;;;;5046282;28;20077;-65
2023/10/31 13:44:36;;;;;;;4.60;0.40;;;;;;;;;;5027135;28;20088;-66
2023/10/31 13:47:02;;;;;;;3.50;0.80;;;;;;;;;;5028383;28;20045;-65
2023/10/31 13:49:28;;;;;;;3.28;0.52;;;;;;;;;;5018166;28;20037;-65
2023/10/31 13:51:54;;;;;;;4.03;0.60;;;;;;;;;;5028679;28;20488;-65
2023/10/31 13:54:20;;;;;;;1.80;0.50;;;;;;;;;;5026819;28;20069;-65
2023/10/31 13:56:46;;;;;;;1.40;0.50;;;;;;;;;;5027095;28;20037;-65
2023/10/31 13:59:12;;;;;;;3.33;0.77;;;;;;;;;;5021707;28;20152;-65
2023/10/31 14:01:39;;;;;;;2.83;0.68;;;;;;;;;;5017975;28;20053;-65
2023/10/31 14:04:05;;;;;;;4.95;1.05;;;;;;;;;;5020731;28;20511;-66
2023/10/31 14:06:32;;;;;;;2.70;0.40;;;;;;;;;;5016732;28;20088;-66
2023/10/31 14:08:59;;;;;;;4.22;0.77;;;;;;;;;;5057204;28;20041;-66
2023/10/31 14:11:25;;;;;;;1.95;0.60;;;;;;;;;;5015279;28;20037;-66
2023/10/31 14:13:51;;;;;;;1.95;0.57;;;;;;;;;;5019358;28;20076;-66
2023/10/31 14:16:18;;;;;;;3.08;0.80;;;;;;;;;;5025762;28;20460;-66
2023/10/31 14:18:45;;;;;;;4.72;0.80;;;;;;;;;;5017986;28;20037;-66
2023/10/31 14:21:12;;;;;;;1.45;0.55;;;;;;;;;;5019032;28;20288;-66
2023/10/31 14:23:38;;;;;;;2.35;0.52;;;;;;;;;;5029858;28;20050;-66
2023/10/31 14:26:04;;;;;;;2.67;0.65;;;;;;;;;;5030045;28;20401;-66
2023/10/31 14:28:30;;;;;;;4.00;0.50;;;;;;;;;;5023679;28;20046;-66
2023/10/31 14:30:57;;;;;;;1.83;0.52;;;;;;;;;;5024492;28;20210;-66
2023/10/31 14:33:23;;;;;;;1.95;0.70;;;;;;;;;;5029597;28;20087;-66
2023/10/31 14:35:49;;;;;;;3.70;0.85;;;;;;;;;;5023551;28;20084;-66